»·PEaware :: N2070X KGEG-KHLN

N2070X :: KGEG-KHLN

FLIGHT INFORMATION

Flight Status: Arrived
Operator: Privately registered:
United States
More flights under this callsign
Pilot: Roger K. (8372)
Aircraft: Unknown
(CE T)
More flights by this aircraft type
Origin: KGEG Spokane Intl
United States
Destination: KHLN Helena Regl
United States
More flights between these airports :: More routes between these airports
Route: +GEG4 ROPES V2 HLN
File this flight plan on PilotEdge
Remarks: +CW /
Altitude:
(Current/Filed)
11,000ft
Speed:
(Current/Filed)
120kts
Departed: 18-Feb-19 09:02 PM
Arrived: 18-Feb-19 11:18 PM
Distance/Time
Traveled:
234nm/2:15
Distance/Time
To Go:
Arrived

Flight Plot

Page will automatically refresh every two minutes.

Flight plan parsing failed; only flown route is shown


Map Options




Map Legend


Flown Route
Filed Route
Departure Airport
Arrival Airport
Navaid (VOR, NDB)
Fix

Horizontal Profiles

Position Reports

Time Latitude Longitude Heading Altitude Ground
Speed
18-Feb-19 20:18 47.620881 -117.527007 255 2377ft 0kts
18-Feb-19 20:19 47.620881 -117.527007 255 2377ft 0kts
18-Feb-19 20:20 47.620881 -117.527007 255 2377ft 0kts
18-Feb-19 20:22 47.620881 -117.527007 255 2377ft 0kts
18-Feb-19 20:29 47.620881 -117.527007 255 2377ft 0kts
18-Feb-19 20:33 47.620881 -117.527007 255 2377ft 0kts
18-Feb-19 20:37 47.620881 -117.527007 255 2377ft 0kts
18-Feb-19 20:38 47.620881 -117.527007 255 2377ft 0kts
18-Feb-19 20:39 47.620881 -117.527007 255 2377ft 0kts
18-Feb-19 20:40 47.620881 -117.527007 255 2377ft 0kts
18-Feb-19 20:41 47.620881 -117.527007 255 2377ft 0kts
18-Feb-19 20:42 47.620881 -117.527007 255 2377ft 0kts
18-Feb-19 20:43 47.620881 -117.527007 255 2377ft 0kts
18-Feb-19 20:44 47.620881 -117.527007 255 2377ft 0kts
18-Feb-19 20:45 47.620881 -117.527007 255 2377ft 0kts
18-Feb-19 20:46 47.620881 -117.527007 255 2377ft 0kts
18-Feb-19 20:47 47.620881 -117.527007 255 2377ft 0kts
18-Feb-19 20:48 47.620881 -117.527007 255 2377ft 0kts
18-Feb-19 20:49 47.620881 -117.527007 255 2377ft 0kts
18-Feb-19 20:50 47.620881 -117.527007 255 2377ft 0kts
18-Feb-19 20:51 47.620926 -117.527161 335 2377ft 0kts
18-Feb-19 20:52 47.621088 -117.527954 276 2377ft 2kts
18-Feb-19 20:53 47.621735 -117.528938 14 2377ft 4kts
18-Feb-19 20:54 47.622964 -117.527220 44 2377ft 10kts
18-Feb-19 20:55 47.625743 -117.523023 44 2377ft 18kts
18-Feb-19 20:56 47.629176 -117.517849 44 2377ft 4kts
18-Feb-19 20:57 47.629968 -117.516880 5 2377ft 2kts
18-Feb-19 20:58 47.630183 -117.516984 332 2377ft 0kts
18-Feb-19 20:59 47.630183 -117.516984 332 2377ft 0kts
18-Feb-19 21:00 47.630947 -117.518210 283 2377ft 3kts
18-Feb-19 21:01 47.620331 -117.534701 225 2461ft 109kts
18-Feb-19 21:02 47.596598 -117.570341 221 3155ft 126kts
18-Feb-19 21:03 47.573332 -117.558093 77 3841ft 108kts
18-Feb-19 21:04 47.572308 -117.514657 75 4510ft 111kts
18-Feb-19 21:05 47.578037 -117.473610 69 4987ft 92kts
18-Feb-19 21:06 47.569690 -117.435873 92 5574ft 100kts
18-Feb-19 21:08 47.564197 -117.394118 87 6098ft 105kts
18-Feb-19 21:09 47.559594 -117.349973 87 6622ft 112kts
18-Feb-19 21:10 47.554935 -117.302880 87 7144ft 118kts
18-Feb-19 21:11 47.550106 -117.254649 87 7659ft 120kts
18-Feb-19 21:12 47.545540 -117.209446 87 8135ft 121kts
18-Feb-19 21:13 47.540739 -117.162039 86 8632ft 122kts
18-Feb-19 21:14 47.536734 -117.112268 82 9154ft 120kts
18-Feb-19 21:15 47.534250 -117.063493 82 9669ft 122kts
18-Feb-19 21:16 47.533245 -117.013260 86 10168ft 129kts
18-Feb-19 21:17 47.533166 -116.961302 95 10667ft 133kts
18-Feb-19 21:18 47.531277 -116.905655 99 11019ft 143kts
18-Feb-19 21:19 47.527389 -116.839753 98 10484ft 167kts
18-Feb-19 21:20 47.523779 -116.773904 98 10478ft 156kts
18-Feb-19 21:21 47.520533 -116.711813 98 10477ft 145kts
18-Feb-19 21:22 47.517353 -116.652364 98 10482ft 150kts
18-Feb-19 21:23 47.513821 -116.588816 98 10480ft 158kts
18-Feb-19 21:24 47.510199 -116.523503 98 10481ft 160kts
18-Feb-19 21:25 47.508328 -116.472276 101 11129ft 126kts
18-Feb-19 21:26 47.505313 -116.415636 101 11300ft 151kts
18-Feb-19 21:27 47.501701 -116.353413 101 11296ft 151kts
18-Feb-19 21:27 47.498750 -116.301679 101 11296ft 151kts
18-Feb-19 21:28 47.495205 -116.239986 101 11297ft 151kts
18-Feb-19 21:29 47.491612 -116.178098 101 11297ft 151kts
18-Feb-19 21:31 47.487378 -116.105954 101 11297ft 151kts
18-Feb-19 21:31 47.484341 -116.054534 101 11298ft 150kts
18-Feb-19 21:32 47.480650 -115.992810 101 11298ft 151kts
18-Feb-19 21:33 47.476835 -115.930145 101 11299ft 155kts
18-Feb-19 21:35 47.472294 -115.855875 102 11293ft 156kts
18-Feb-19 21:35 47.469032 -115.802624 102 11294ft 156kts
18-Feb-19 21:36 47.465065 -115.738562 102 11294ft 156kts
18-Feb-19 21:37 47.461068 -115.674601 102 11294ft 156kts
18-Feb-19 21:38 47.449859 -115.615353 127 11295ft 147kts
18-Feb-19 21:39 47.431633 -115.561528 127 11298ft 148kts
18-Feb-19 21:40 47.412902 -115.506787 127 11299ft 149kts
18-Feb-19 21:41 47.394160 -115.452153 127 11299ft 149kts
18-Feb-19 21:42 47.375325 -115.397351 127 11299ft 149kts
18-Feb-19 21:43 47.356464 -115.342581 127 11299ft 149kts
18-Feb-19 21:44 47.337583 -115.287873 127 11299ft 150kts
18-Feb-19 21:45 47.318675 -115.233203 127 11300ft 150kts
18-Feb-19 21:46 47.299726 -115.178519 127 11300ft 150kts
18-Feb-19 21:47 47.280676 -115.123667 127 11300ft 150kts
18-Feb-19 21:48 47.261755 -115.069165 127 11464ft 147kts
18-Feb-19 21:49 47.244260 -115.017302 129 11979ft 137kts
18-Feb-19 21:50 47.227132 -114.967407 130 12502ft 136kts
18-Feb-19 21:51 47.210040 -114.918288 130 13025ft 134kts
18-Feb-19 21:52 47.192581 -114.868913 131 13291ft 148kts
18-Feb-19 21:53 47.172720 -114.813479 129 13286ft 152kts
18-Feb-19 21:54 47.153558 -114.758849 130 13286ft 149kts
18-Feb-19 21:55 47.134587 -114.704962 130 13287ft 148kts
18-Feb-19 21:56 47.115579 -114.651163 130 13287ft 148kts
18-Feb-19 21:57 47.096593 -114.597565 130 13287ft 148kts
18-Feb-19 21:58 47.077517 -114.543828 130 13287ft 148kts
18-Feb-19 21:59 47.058099 -114.489517 129 13288ft 153kts
18-Feb-19 22:00 47.037774 -114.432947 129 13288ft 158kts
18-Feb-19 22:01 47.017297 -114.375760 129 13288ft 159kts
18-Feb-19 22:02 46.996688 -114.318223 129 13288ft 159kts
18-Feb-19 22:03 46.976072 -114.260764 129 13288ft 159kts
18-Feb-19 22:04 46.955443 -114.203394 129 13288ft 159kts
18-Feb-19 22:05 46.934756 -114.145988 129 13289ft 159kts
18-Feb-19 22:06 46.914025 -114.088581 129 13289ft 159kts
18-Feb-19 22:07 46.902818 -114.023205 109 13289ft 168kts
18-Feb-19 22:08 46.893991 -113.956005 109 13289ft 168kts
18-Feb-19 22:09 46.885151 -113.889235 110 13286ft 168kts
18-Feb-19 22:10 46.876267 -113.822282 110 13285ft 167kts
18-Feb-19 22:11 46.867400 -113.755972 110 13285ft 167kts
18-Feb-19 22:12 46.858445 -113.689373 110 13286ft 167kts
18-Feb-19 22:13 46.849444 -113.622762 110 13286ft 167kts
18-Feb-19 22:14 46.841156 -113.561690 110 13286ft 167kts
18-Feb-19 22:15 46.833339 -113.504329 110 13286ft 167kts
18-Feb-19 22:16 46.824226 -113.437745 110 13287ft 167kts
18-Feb-19 22:17 46.815067 -113.371129 110 13287ft 167kts
18-Feb-19 22:18 46.805898 -113.304740 110 13287ft 167kts
18-Feb-19 22:19 46.796646 -113.238046 110 13287ft 167kts
18-Feb-19 22:20 46.787365 -113.171448 110 13288ft 167kts
18-Feb-19 22:21 46.778028 -113.104756 110 13288ft 167kts
18-Feb-19 22:22 46.768700 -113.038432 110 13288ft 167kts
18-Feb-19 22:23 46.759275 -112.971704 110 13289ft 167kts
18-Feb-19 22:24 46.749812 -112.905013 110 13289ft 167kts
18-Feb-19 22:25 46.740490 -112.839322 111 13284ft 166kts
18-Feb-19 22:26 46.731058 -112.773312 111 13284ft 166kts
18-Feb-19 22:27 46.721558 -112.707211 111 13285ft 166kts
18-Feb-19 22:28 46.712066 -112.641463 111 13285ft 166kts
18-Feb-19 22:29 46.702582 -112.575813 111 13283ft 160kts
18-Feb-19 22:30 46.694592 -112.517483 113 13281ft 134kts
18-Feb-19 22:31 46.687700 -112.466807 115 13283ft 122kts
18-Feb-19 22:32 46.681160 -112.419812 116 13285ft 115kts
18-Feb-19 22:33 46.683316 -112.373604 87 13280ft 122kts
18-Feb-19 22:34 46.679818 -112.329512 124 13282ft 106kts
18-Feb-19 22:35 46.671714 -112.287950 121 13280ft 107kts
18-Feb-19 22:36 46.664136 -112.245916 121 13279ft 107kts
18-Feb-19 22:37 46.654727 -112.197893 118 13295ft 144kts
18-Feb-19 22:38 46.642960 -112.136933 115 13032ft 168kts
18-Feb-19 22:39 46.630616 -112.069496 113 12441ft 175kts
18-Feb-19 22:40 46.618280 -112.000955 113 11845ft 176kts
18-Feb-19 22:41 46.595737 -111.945121 112 11301ft 172kts
18-Feb-19 22:42 46.592988 -111.878196 99 11305ft 162kts
18-Feb-19 22:43 46.602747 -111.816531 62 11306ft 163kts
18-Feb-19 22:44 46.639234 -111.804766 348 11307ft 142kts
18-Feb-19 22:45 46.679566 -111.799844 355 11306ft 148kts
18-Feb-19 22:46 46.721633 -111.792295 357 11308ft 158kts
18-Feb-19 22:47 46.766007 -111.783916 358 11307ft 162kts
18-Feb-19 22:48 46.810766 -111.775237 358 11307ft 163kts
18-Feb-19 22:49 46.855632 -111.766480 358 11307ft 163kts
18-Feb-19 22:50 46.900391 -111.755712 24 11302ft 172kts
18-Feb-19 22:51 46.897775 -111.699010 136 11308ft 154kts
18-Feb-19 22:52 46.872701 -111.648503 140 11308ft 152kts
18-Feb-19 22:53 46.844914 -111.602964 147 11308ft 148kts
18-Feb-19 22:54 46.814216 -111.563580 154 11308ft 145kts
18-Feb-19 22:55 46.781444 -111.530851 161 11308ft 141kts
18-Feb-19 22:56 46.747225 -111.504711 168 11308ft 137kts
18-Feb-19 22:57 46.712127 -111.484974 174 11308ft 134kts
18-Feb-19 22:58 46.676421 -111.471349 180 11308ft 131kts
18-Feb-19 22:59 46.640705 -111.463654 185 11308ft 128kts
18-Feb-19 23:00 46.613135 -111.461584 190 11308ft 126kts
18-Feb-19 23:01 46.578431 -111.463690 195 11308ft 124kts
18-Feb-19 23:02 46.552247 -111.485380 237 11306ft 110kts
18-Feb-19 23:03 46.536230 -111.522417 244 11076ft 110kts
18-Feb-19 23:04 46.541856 -111.568775 275 10464ft 118kts
18-Feb-19 23:05 46.549166 -111.615536 276 9751ft 118kts
18-Feb-19 23:06 46.556407 -111.662256 278 8818ft 121kts
18-Feb-19 23:07 46.563818 -111.710211 279 7809ft 122kts
18-Feb-19 23:08 46.571286 -111.758562 281 6798ft 122kts
18-Feb-19 23:09 46.577155 -111.795977 281 6242ft 70kts
18-Feb-19 23:10 46.581348 -111.823162 281 5821ft 67kts
18-Feb-19 23:11 46.585514 -111.850202 282 5447ft 69kts
18-Feb-19 23:12 46.589748 -111.877685 283 5074ft 70kts
18-Feb-19 23:13 46.593975 -111.905030 284 4703ft 64kts
18-Feb-19 23:14 46.597737 -111.930225 289 4269ft 64kts
18-Feb-19 23:15 46.601650 -111.954092 282 4041ft 58kts
18-Feb-19 23:16 46.605312 -111.977754 283 3879ft 56kts
18-Feb-19 23:17 46.606231 -111.983566 280 3879ft 6kts
18-Feb-19 23:18 46.605350 -111.987159 152 3879ft 1kts
18-Feb-19 23:19 46.605370 -111.987175 154 3879ft 0kts

Navigation Log

Ident Type
Flight plan parsing failed, navigation log unavailable